Time;durP1;ratioP1;P1;durP2;ratioP2;P2;SDS_P1;SDS_P2;PMS_P1;PMS_P2;Temp;Humidity;BMP_temperature;BMP_pressure;BME280_temperature;BME280_humidity;BME280_pressure;Samples;Min_cycle;Max_cycle;Signal;HPM_P1;HPM_P2
2022/07/09 00:00:24;;;;;;;0.00;0.00;;;16.80;99.90;;;;;;5008381;28;20442;-80
2022/07/09 00:02:52;;;;;;;0.00;0.00;;;16.80;99.90;;;;;;5005796;28;20553;-79
2022/07/09 00:05:21;;;;;;;0.00;0.00;;;16.80;99.90;;;;;;5012685;28;20443;-85
2022/07/09 00:07:49;;;;;;;0.00;0.00;;;16.80;99.90;;;;;;5011330;28;20504;-84
2022/07/09 00:10:17;;;;;;;0.00;0.00;;;16.80;99.90;;;;;;5004808;28;20450;-82
2022/07/09 00:12:44;;;;;;;0.00;0.00;;;16.80;99.90;;;;;;5004894;28;20741;-82
2022/07/09 00:15:12;;;;;;;0.00;0.00;;;16.80;99.90;;;;;;5004686;28;20455;-82
2022/07/09 00:17:40;;;;;;;0.00;0.00;;;16.70;99.90;;;;;;5003933;28;20592;-82
2022/07/09 00:20:10;;;;;;;0.00;0.00;;;16.70;99.90;;;;;;5011782;28;20448;-82
2022/07/09 00:22:39;;;;;;;0.00;0.00;;;16.60;99.90;;;;;;5004505;28;20886;-81
2022/07/09 00:25:07;;;;;;;0.00;0.00;;;16.60;99.90;;;;;;5003138;28;20446;-79
2022/07/09 00:27:35;;;;;;;0.00;0.00;;;16.50;99.90;;;;;;5003226;28;20470;-78
2022/07/09 00:30:04;;;;;;;0.00;0.00;;;16.40;99.90;;;;;;5003128;28;20442;-79
2022/07/09 00:32:32;;;;;;;0.00;0.00;;;16.40;99.90;;;;;;5003089;28;20807;-80
2022/07/09 00:34:59;;;;;;;0.00;0.00;;;16.40;99.90;;;;;;5003140;28;20459;-80
2022/07/09 00:37:27;;;;;;;0.00;0.00;;;16.40;99.90;;;;;;5002978;28;20988;-81
2022/07/09 00:39:56;;;;;;;0.00;0.00;;;16.40;99.90;;;;;;5003482;28;20454;-81
2022/07/09 00:42:25;;;;;;;0.00;0.00;;;16.40;99.90;;;;;;5005167;28;20446;-79
2022/07/09 00:44:53;;;;;;;0.00;0.00;;;16.30;99.90;;;;;;5010995;28;20461;-80
2022/07/09 00:47:20;;;;;;;0.00;0.00;;;16.30;99.90;;;;;;5003656;28;20806;-80
2022/07/09 00:49:49;;;;;;;0.00;0.00;;;16.30;99.90;;;;;;5003178;28;20704;-80
2022/07/09 00:52:17;;;;;;;0.00;0.00;;;16.40;99.90;;;;;;5002958;28;20439;-80
2022/07/09 00:54:45;;;;;;;0.00;0.00;;;16.50;99.90;;;;;;5002341;28;20701;-80
2022/07/09 00:57:26;;;;;;;0.00;0.00;;;16.60;99.90;;;;;;5002704;28;20481;-80
2022/07/09 00:59:57;;;;;;;0.00;0.00;;;16.60;99.90;;;;;;5002260;28;20780;-79
2022/07/09 01:02:25;;;;;;;0.00;0.00;;;16.70;99.90;;;;;;5007409;28;20533;-81
2022/07/09 01:04:53;;;;;;;0.00;0.00;;;16.70;99.90;;;;;;5021981;28;20446;-81
2022/07/09 01:07:21;;;;;;;0.00;0.00;;;16.70;99.90;;;;;;5023176;28;20522;-80
2022/07/09 01:09:49;;;;;;;0.00;0.00;;;16.70;99.90;;;;;;5017498;28;21045;-81
2022/07/09 01:12:18;;;;;;;0.00;0.00;;;16.80;99.90;;;;;;5003834;28;20446;-80
2022/07/09 01:14:46;;;;;;;0.00;0.00;;;16.80;99.90;;;;;;5005670;28;20891;-79
2022/07/09 01:17:14;;;;;;;0.00;0.00;;;16.80;99.90;;;;;;5003165;28;20478;-80
2022/07/09 01:19:41;;;;;;;0.00;0.00;;;16.80;99.90;;;;;;5011043;28;20462;-81
2022/07/09 01:22:11;;;;;;;0.00;0.00;;;16.70;99.90;;;;;;5010493;28;20451;-79
2022/07/09 01:24:39;;;;;;;0.00;0.00;;;16.70;99.90;;;;;;5004551;28;20852;-80
2022/07/09 01:27:07;;;;;;;0.00;0.00;;;16.70;99.90;;;;;;5001863;28;20462;-80
2022/07/09 01:29:35;;;;;;;0.00;0.00;;;16.70;99.90;;;;;;5003106;28;21012;-80
2022/07/09 01:32:03;;;;;;;0.00;0.00;;;16.60;99.90;;;;;;5004016;28;20474;-80
2022/07/09 01:34:31;;;;;;;0.00;0.00;;;16.60;99.90;;;;;;5000721;28;20518;-81
2022/07/09 01:36:59;;;;;;;0.00;0.00;;;16.60;99.90;;;;;;5001550;28;20458;-81
2022/07/09 01:39:28;;;;;;;0.00;0.00;;;16.60;99.90;;;;;;5002056;28;21032;-79
2022/07/09 01:41:56;;;;;;;0.00;0.00;;;16.70;99.90;;;;;;5011898;28;20451;-79
2022/07/09 01:44:24;;;;;;;0.00;0.00;;;16.60;99.90;;;;;;5001340;28;20624;-79
2022/07/09 01:46:51;;;;;;;0.00;0.00;;;16.60;99.90;;;;;;5001244;28;20501;-81
2022/07/09 01:49:19;;;;;;;0.00;0.00;;;16.60;99.90;;;;;;5001914;28;21008;-81
2022/07/09 01:51:47;;;;;;;0.00;0.00;;;16.60;99.90;;;;;;5000982;28;20497;-81
2022/07/09 01:54:15;;;;;;;0.00;0.00;;;16.60;99.90;;;;;;5002489;28;21013;-86
2022/07/09 01:56:44;;;;;;;0.00;0.00;;;16.70;99.90;;;;;;5004105;28;20469;-83
2022/07/09 01:59:12;;;;;;;0.00;0.00;;;16.70;99.90;;;;;;5001633;28;20486;-72
2022/07/09 02:01:40;;;;;;;0.00;0.00;;;16.70;99.90;;;;;;4998107;28;20454;-74
2022/07/09 02:04:08;;;;;;;0.00;0.00;;;16.70;99.90;;;;;;4998187;28;20983;-72
2022/07/09 02:06:36;;;;;;;0.00;0.00;;;16.70;99.90;;;;;;4998350;28;20470;-72
2022/07/09 02:09:04;;;;;;;0.00;0.00;;;16.70;99.90;;;;;;4998452;28;20438;-72
2022/07/09 02:11:31;;;;;;;0.00;0.00;;;16.80;99.90;;;;;;4998045;28;20445;-73
2022/07/09 02:14:01;;;;;;;0.00;0.00;;;16.80;99.90;;;;;;4998195;28;20452;-72
2022/07/09 02:16:28;;;;;;;0.00;0.00;;;16.80;99.90;;;;;;4998656;28;20443;-72
2022/07/09 02:21:38;;;;;;;0.00;0.00;;;16.90;99.90;;;;;;5602572;22;20482;-93
2022/07/09 02:24:08;;;;;;;0.00;0.00;;;16.90;99.90;;;;;;4991708;28;20815;-92
2022/07/09 02:26:38;;;;;;;0.00;0.00;;;16.90;99.90;;;;;;4973092;28;20448;-93
2022/07/09 02:29:15;;;;;;;0.00;0.00;;;16.80;99.90;;;;;;4968607;28;20474;-93
2022/07/09 02:31:55;;;;;;;0.00;0.00;;;16.70;99.90;;;;;;4969111;28;20460;-91
2022/07/09 02:34:23;;;;;;;0.00;0.00;;;16.80;99.90;;;;;;4969371;28;20479;-92
2022/07/09 02:36:58;;;;;;;0.00;0.00;;;16.80;99.90;;;;;;4973625;28;20462;-89
2022/07/09 02:39:26;;;;;;;0.00;0.00;;;16.80;99.90;;;;;;4971456;28;20476;-92
2022/07/09 02:41:54;;;;;;;0.00;0.00;;;16.80;99.90;;;;;;4971558;28;20453;-91
2022/07/09 02:44:24;;;;;;;0.00;0.00;;;16.80;99.90;;;;;;4976440;28;20865;-93
2022/07/09 02:46:53;;;;;;;0.00;0.00;;;16.80;99.90;;;;;;4978598;28;20456;-91
2022/07/09 02:49:23;;;;;;;0.00;0.00;;;16.90;99.90;;;;;;4973968;28;20515;-90
2022/07/09 02:51:52;;;;;;;0.00;0.00;;;16.90;99.90;;;;;;4972657;28;20972;-89
2022/07/09 02:54:22;;;;;;;0.00;0.00;;;16.90;99.90;;;;;;4974287;28;20550;-89
2022/07/09 02:56:50;;;;;;;0.00;0.00;;;16.90;99.90;;;;;;4977370;28;20484;-91
2022/07/09 02:59:29;;;;;;;0.00;0.00;;;16.80;99.90;;;;;;4978107;28;20549;-89
2022/07/09 03:02:09;;;;;;;0.00;0.00;;;16.90;99.90;;;;;;4983794;28;20454;-90
2022/07/09 03:04:48;;;;;;;0.00;0.00;;;16.90;99.90;;;;;;4989716;28;20464;-88
2022/07/09 03:07:19;;;;;;;0.00;0.00;;;17.00;99.90;;;;;;4990194;28;20470;-88
2022/07/09 03:09:50;;;;;;;0.00;0.00;;;17.00;99.90;;;;;;4982469;28;20609;-91
2022/07/09 03:12:19;;;;;;;0.00;0.00;;;16.90;99.90;;;;;;4977983;28;20483;-92
2022/07/09 03:14:51;;;;;;;0.00;0.00;;;16.90;99.90;;;;;;4984344;28;20436;-91
2022/07/09 03:17:19;;;;;;;0.00;0.00;;;16.90;99.90;;;;;;4990562;28;20425;-89
2022/07/09 03:19:47;;;;;;;0.00;0.00;;;16.90;99.90;;;;;;4985613;28;20813;-90
2022/07/09 03:22:14;;;;;;;0.00;0.00;;;16.90;99.90;;;;;;4989620;28;20552;-90
2022/07/09 03:24:43;;;;;;;0.00;0.00;;;16.90;99.90;;;;;;4988618;28;20464;-93
2022/07/09 03:27:10;;;;;;;0.00;0.00;;;16.90;99.90;;;;;;4988355;28;20468;-88
2022/07/09 03:29:38;;;;;;;0.00;0.00;;;16.90;99.90;;;;;;4980748;28;20471;-93
2022/07/09 03:32:09;;;;;;;0.00;0.00;;;16.90;99.90;;;;;;4979593;28;20490;-92
2022/07/09 03:34:39;;;;;;;0.00;0.00;;;16.90;99.90;;;;;;4980562;28;20476;-90
2022/07/09 03:37:08;;;;;;;0.00;0.00;;;16.90;99.90;;;;;;4981859;28;20917;-91
2022/07/09 03:39:36;;;;;;;0.00;0.00;;;16.80;99.90;;;;;;4977006;28;20506;-90
2022/07/09 03:42:06;;;;;;;0.00;0.00;;;16.90;99.90;;;;;;4977542;28;20495;-88
2022/07/09 03:44:34;;;;;;;0.00;0.00;;;16.80;99.90;;;;;;4978956;28;20527;-92
2022/07/09 03:47:02;;;;;;;0.00;0.00;;;16.80;99.90;;;;;;4978801;28;20448;-92
2022/07/09 03:49:32;;;;;;;0.00;0.00;;;16.80;99.90;;;;;;4977756;28;20480;-89
2022/07/09 03:52:01;;;;;;;0.00;0.00;;;16.80;99.90;;;;;;4977350;28;20502;-90
2022/07/09 03:54:45;;;;;;;0.00;0.00;;;16.70;99.90;;;;;;4977242;28;20499;-90
2022/07/09 03:57:13;;;;;;;0.00;0.00;;;16.80;99.90;;;;;;4977548;28;20479;-89
2022/07/09 03:59:41;;;;;;;0.00;0.00;;;16.80;99.90;;;;;;4978841;28;20476;-89
2022/07/09 04:02:09;;;;;;;0.00;0.00;;;16.70;99.90;;;;;;4986564;28;20481;-89
2022/07/09 04:04:43;;;;;;;0.00;0.00;;;16.80;99.90;;;;;;4993883;28;20440;-89
2022/07/09 04:07:14;;;;;;;0.00;0.00;;;16.80;99.90;;;;;;4979642;28;20980;-89
2022/07/09 04:09:44;;;;;;;0.00;0.00;;;16.70;99.90;;;;;;4976328;28;20929;-89
2022/07/09 04:12:12;;;;;;;0.00;0.00;;;16.80;99.90;;;;;;4976231;28;20515;-89
2022/07/09 04:14:40;;;;;;;0.00;0.00;;;16.80;99.90;;;;;;4976711;28;20460;-90
2022/07/09 04:17:08;;;;;;;0.00;0.00;;;16.90;99.90;;;;;;4976388;28;20462;-89
2022/07/09 04:19:36;;;;;;;0.00;0.00;;;16.90;99.90;;;;;;4975729;28;20487;-91
2022/07/09 04:22:06;;;;;;;0.00;0.00;;;16.90;99.90;;;;;;4976334;28;20591;-85
2022/07/09 04:24:34;;;;;;;0.00;0.00;;;16.90;99.90;;;;;;4985619;28;20480;-89
2022/07/09 04:27:02;;;;;;;0.00;0.00;;;16.90;99.90;;;;;;4994425;28;20469;-88
2022/07/09 04:29:30;;;;;;;0.00;0.00;;;17.00;99.90;;;;;;4994431;28;20428;-89
2022/07/09 04:32:00;;;;;;;0.00;0.00;;;17.00;99.90;;;;;;4994948;28;20439;-89
2022/07/09 04:34:28;;;;;;;0.00;0.00;;;17.00;99.90;;;;;;4982124;28;20463;-89
2022/07/09 04:36:56;;;;;;;0.00;0.00;;;17.10;99.90;;;;;;4977556;28;20538;-88
2022/07/09 04:39:25;;;;;;;0.00;0.00;;;17.10;99.90;;;;;;4977800;28;21185;-88
2022/07/09 04:41:53;;;;;;;0.00;0.00;;;17.20;99.90;;;;;;4978091;28;20467;-90
2022/07/09 04:44:21;;;;;;;0.00;0.00;;;17.20;99.90;;;;;;4978124;28;20529;-88
2022/07/09 04:46:49;;;;;;;0.00;0.00;;;17.10;99.90;;;;;;4976974;28;20463;-89
2022/07/09 04:49:17;;;;;;;0.00;0.00;;;17.10;99.90;;;;;;4977085;28;20527;-88
2022/07/09 04:51:45;;;;;;;0.00;0.00;;;17.10;99.90;;;;;;4975958;28;20482;-89
2022/07/09 04:54:13;;;;;;;0.00;0.00;;;17.10;99.90;;;;;;4972879;28;20518;-90
2022/07/09 04:56:42;;;;;;;0.00;0.00;;;17.10;99.90;;;;;;4973653;28;20443;-92
2022/07/09 04:59:10;;;;;;;0.00;0.00;;;17.10;99.90;;;;;;4975224;28;20544;-90
2022/07/09 05:01:38;;;;;;;0.00;0.00;;;17.20;99.90;;;;;;4976628;28;20445;-90
2022/07/09 05:04:06;;;;;;;0.00;0.00;;;17.20;99.90;;;;;;4980520;28;21038;-91
2022/07/09 05:06:34;;;;;;;0.00;0.00;;;17.10;99.90;;;;;;4983670;28;20460;-90
2022/07/09 05:09:03;;;;;;;0.00;0.00;;;17.20;99.90;;;;;;4976430;28;20486;-90
2022/07/09 05:11:32;;;;;;;0.00;0.00;;;17.20;99.90;;;;;;4977107;28;20839;-88
2022/07/09 05:14:01;;;;;;;0.00;0.00;;;17.30;99.90;;;;;;4976344;28;20478;-89
2022/07/09 05:16:30;;;;;;;0.00;0.00;;;17.30;99.90;;;;;;4976595;28;20960;-90
2022/07/09 05:18:58;;;;;;;0.00;0.00;;;17.20;99.90;;;;;;4975817;28;20460;-88
2022/07/09 05:21:26;;;;;;;0.00;0.00;;;17.30;99.90;;;;;;4977658;28;20480;-87
2022/07/09 05:23:54;;;;;;;0.00;0.00;;;17.30;99.90;;;;;;4975827;28;20492;-89
2022/07/09 05:26:22;;;;;;;0.00;0.00;;;17.30;99.90;;;;;;4976369;28;20452;-91
2022/07/09 05:28:50;;;;;;;0.00;0.00;;;17.30;99.90;;;;;;4979848;28;20523;-91
2022/07/09 05:31:20;;;;;;;0.00;0.00;;;17.40;99.90;;;;;;4975281;28;21028;-88
2022/07/09 05:34:02;;;;;;;0.00;0.00;;;17.40;99.90;;;;;;4977504;28;20534;-92
2022/07/09 05:36:32;;;;;;;0.00;0.00;;;17.50;99.90;;;;;;4987965;28;20622;-90
2022/07/09 05:39:01;;;;;;;0.00;0.00;;;17.50;99.90;;;;;;4990521;28;20452;-93
2022/07/09 05:41:29;;;;;;;0.00;0.00;;;17.50;99.90;;;;;;4986689;28;20470;-93
2022/07/09 05:43:57;;;;;;;0.00;0.00;;;17.50;99.90;;;;;;4981302;28;20583;-92
2022/07/09 05:46:26;;;;;;;0.00;0.00;;;17.50;99.90;;;;;;4979757;28;20598;-93
2022/07/09 05:48:54;;;;;;;0.00;0.00;;;17.60;99.90;;;;;;4981882;28;20458;-93
2022/07/09 05:51:23;;;;;;;0.00;0.00;;;17.70;99.90;;;;;;4981885;28;20438;-92
2022/07/09 05:53:51;;;;;;;0.00;0.00;;;17.80;99.90;;;;;;4975657;28;20511;-91
2022/07/09 05:56:19;;;;;;;0.00;0.00;;;17.80;99.90;;;;;;4979215;28;20599;-92
2022/07/09 05:58:47;;;;;;;0.00;0.00;;;17.80;99.90;;;;;;4980799;28;20487;-91
2022/07/09 06:01:17;;;;;;;0.00;0.00;;;17.80;99.90;;;;;;4975754;28;20481;-92
2022/07/09 06:03:54;;;;;;;0.00;0.00;;;17.90;99.90;;;;;;4981994;28;20469;-93
2022/07/09 06:06:23;;;;;;;0.00;0.00;;;17.90;99.90;;;;;;4995352;28;20453;-92
2022/07/09 06:08:54;;;;;;;0.00;0.00;;;17.90;99.90;;;;;;4987584;28;20453;-91
2022/07/09 06:11:28;;;;;;;0.00;0.00;;;17.90;99.90;;;;;;4989939;28;20442;-93
2022/07/09 06:13:56;;;;;;;0.00;0.00;;;17.80;99.90;;;;;;4990246;28;20586;-92
2022/07/09 06:16:25;;;;;;;0.00;0.00;;;17.90;99.90;;;;;;4986904;28;20747;-94
2022/07/09 06:18:56;;;;;;;0.00;0.00;;;17.80;99.90;;;;;;4994400;28;20472;-91
2022/07/09 06:21:26;;;;;;;0.00;0.00;;;17.60;99.90;;;;;;4991603;28;20483;-92
2022/07/09 06:23:54;;;;;;;0.00;0.00;;;17.60;99.90;;;;;;4991830;28;20476;-92
2022/07/09 06:26:23;;;;;;;0.00;0.00;;;17.60;99.90;;;;;;4988603;28;20718;-92
2022/07/09 06:28:51;;;;;;;0.00;0.00;;;17.70;99.90;;;;;;4985829;28;20505;-91
2022/07/09 06:31:22;;;;;;;0.00;0.00;;;17.70;99.90;;;;;;4984871;28;20449;-90
2022/07/09 06:33:52;;;;;;;0.00;0.00;;;17.80;99.90;;;;;;4979472;28;20577;-92
2022/07/09 06:36:35;;;;;;;0.00;0.00;;;18.00;99.90;;;;;;4972396;28;20490;-91
2022/07/09 06:41:50;;;;;;;0.00;0.00;;;18.30;99.90;;;;;;4963810;29;20486;-91
2022/07/09 06:44:18;;;;;;;0.00;0.00;;;18.50;99.90;;;;;;4962968;28;20506;-91
2022/07/09 06:46:46;;;;;;;0.00;0.00;;;18.80;99.90;;;;;;4977884;28;20537;-90
2022/07/09 06:49:14;;;;;;;0.00;0.00;;;18.80;99.90;;;;;;4979432;28;20785;-93
2022/07/09 06:51:44;;;;;;;0.00;0.00;;;18.90;99.90;;;;;;4981457;28;20443;-92
2022/07/09 06:54:12;;;;;;;0.00;0.00;;;19.00;99.90;;;;;;4981859;28;20476;-91
2022/07/09 06:56:40;;;;;;;0.00;0.00;;;19.00;99.90;;;;;;4979861;28;20477;-92
2022/07/09 06:59:09;;;;;;;0.00;0.00;;;19.10;99.90;;;;;;4977497;28;20611;-91
2022/07/09 07:01:37;;;;;;;0.00;0.00;;;19.20;99.90;;;;;;4978353;28;20541;-90
2022/07/09 07:04:05;;;;;;;0.00;0.00;;;19.30;99.90;;;;;;4966971;28;20484;-92
2022/07/09 07:06:33;;;;;;;0.00;0.00;;;19.40;99.90;;;;;;4978144;28;20460;-91
2022/07/09 07:09:03;;;;;;;0.00;0.00;;;19.60;99.90;;;;;;4962854;28;20528;-90
2022/07/09 07:11:31;;;;;;;0.00;0.00;;;19.60;99.90;;;;;;4974068;28;20454;-91
2022/07/09 07:13:59;;;;;;;0.00;0.00;;;19.80;99.90;;;;;;4977472;28;21012;-91
2022/07/09 07:16:27;;;;;;;0.00;0.00;;;19.70;99.90;;;;;;4976556;28;20440;-91
2022/07/09 07:18:55;;;;;;;0.00;0.00;;;19.70;99.90;;;;;;4978948;28;20558;-91
2022/07/09 07:21:23;;;;;;;0.00;0.00;;;19.60;99.90;;;;;;4963905;28;20482;-92
2022/07/09 07:23:55;;;;;;;0.00;0.00;;;19.70;99.90;;;;;;4966771;28;20516;-92
2022/07/09 07:30:20;;;;;;;0.00;0.00;;;19.80;99.90;;;;;;4969978;28;20480;-91
2022/07/09 07:35:54;;;;;;;0.00;0.00;;;19.90;99.90;;;;;;4992720;23;20507;-71
2022/07/09 07:38:22;;;;;;;0.00;0.00;;;20.00;99.90;;;;;;5021809;28;20477;-72
2022/07/09 07:40:50;;;;;;;0.00;0.00;;;20.00;99.90;;;;;;5019286;28;21073;-72
2022/07/09 07:43:18;;;;;;;0.00;0.00;;;19.90;99.90;;;;;;5002023;28;20536;-71
2022/07/09 07:45:47;;;;;;;0.00;0.00;;;19.80;99.90;;;;;;5018074;28;20461;-72
2022/07/09 07:48:15;;;;;;;0.00;0.00;;;19.70;99.90;;;;;;5016290;28;20720;-70
2022/07/09 07:50:43;;;;;;;0.00;0.00;;;19.50;99.90;;;;;;5020402;28;20472;-70
2022/07/09 07:53:11;;;;;;;0.00;0.00;;;19.40;99.90;;;;;;5019939;28;20548;-82
2022/07/09 07:55:40;;;;;;;0.00;0.00;;;19.40;99.90;;;;;;5021696;28;20441;-78
2022/07/09 07:58:08;;;;;;;0.00;0.00;;;19.50;99.90;;;;;;5023225;28;20991;-77
2022/07/09 08:00:37;;;;;;;0.00;0.00;;;19.60;99.90;;;;;;5015132;28;20585;-81
2022/07/09 08:03:06;;;;;;;0.00;0.00;;;19.80;99.90;;;;;;5010654;28;20450;-79
2022/07/09 08:05:34;;;;;;;0.00;0.00;;;19.80;99.90;;;;;;5010035;28;20473;-78
2022/07/09 08:08:02;;;;;;;0.00;0.00;;;20.00;99.90;;;;;;5007560;28;20744;-78
2022/07/09 08:10:30;;;;;;;0.00;0.00;;;20.20;99.90;;;;;;5022840;28;20496;-80
2022/07/09 08:13:03;;;;;;;0.00;0.00;;;20.30;99.90;;;;;;5023851;28;20429;-77
2022/07/09 08:15:31;;;;;;;0.00;0.00;;;20.40;99.90;;;;;;5023907;28;20866;-76
2022/07/09 08:17:59;;;;;;;0.00;0.00;;;20.30;99.90;;;;;;5020405;28;20543;-72
2022/07/09 08:20:28;;;;;;;0.00;0.00;;;20.30;99.90;;;;;;5019272;28;20445;-72
2022/07/09 08:22:56;;;;;;;0.00;0.00;;;20.30;99.90;;;;;;5019458;28;20838;-72
2022/07/09 08:25:24;;;;;;;0.00;0.00;;;20.20;99.90;;;;;;5020593;28;20540;-71
2022/07/09 08:27:52;;;;;;;0.00;0.00;;;20.00;99.90;;;;;;5010489;28;20785;-71
2022/07/09 08:30:20;;;;;;;0.00;0.00;;;19.90;99.90;;;;;;5004390;28;20472;-71
2022/07/09 08:32:48;;;;;;;0.00;0.00;;;19.80;99.90;;;;;;5019000;28;20519;-71
2022/07/09 08:35:16;;;;;;;0.00;0.00;;;19.80;99.90;;;;;;5018941;28;20451;-71
2022/07/09 08:37:45;;;;;;;0.00;0.00;;;19.80;99.90;;;;;;5017112;28;21085;-70
2022/07/09 08:40:13;;;;;;;0.00;0.00;;;19.80;99.90;;;;;;5003795;28;20945;-76
2022/07/09 08:42:42;;;;;;;0.00;0.00;;;20.00;99.90;;;;;;5012945;28;20473;-71
2022/07/09 08:45:13;;;;;;;0.00;0.00;;;20.20;99.90;;;;;;5004222;28;20488;-71
2022/07/09 08:47:42;;;;;;;0.00;0.00;;;20.40;99.90;;;;;;5018902;28;20457;-71
2022/07/09 08:50:10;;;;;;;0.00;0.00;;;20.40;99.90;;;;;;5012389;28;20524;-72
2022/07/09 08:52:41;;;;;;;0.00;0.00;;;20.40;99.90;;;;;;5014561;28;20536;-71
2022/07/09 08:55:11;;;;;;;0.00;0.00;;;20.20;99.90;;;;;;5017841;28;20444;-71
2022/07/09 08:57:39;;;;;;;0.00;0.00;;;20.20;99.90;;;;;;5017834;28;20554;-71
2022/07/09 09:00:08;;;;;;;0.00;0.00;;;20.20;99.90;;;;;;5018635;28;20457;-71
2022/07/09 09:02:37;;;;;;;0.00;0.00;;;20.40;99.90;;;;;;5018106;28;20516;-71
2022/07/09 09:05:13;;;;;;;0.00;0.00;;;20.70;99.90;;;;;;5019637;28;20786;-71
2022/07/09 09:07:41;;;;;;;0.00;0.00;;;20.90;99.90;;;;;;5018334;28;20493;-71
2022/07/09 09:10:21;;;;;;;0.00;0.00;;;21.10;99.90;;;;;;5017988;28;20437;-71
2022/07/09 09:12:49;;;;;;;0.00;0.00;;;21.20;99.90;;;;;;5018416;28;20437;-71
2022/07/09 09:15:19;;;;;;;0.00;0.00;;;21.40;99.90;;;;;;5017559;28;20441;-72
2022/07/09 09:17:47;;;;;;;0.00;0.00;;;21.50;99.90;;;;;;5017946;28;20457;-72
2022/07/09 09:20:16;;;;;;;0.00;0.00;;;21.40;99.90;;;;;;5018082;28;20445;-72
2022/07/09 09:22:46;;;;;;;0.00;0.00;;;21.30;99.90;;;;;;5017439;28;20477;-70
2022/07/09 09:25:19;;;;;;;0.00;0.00;;;21.20;99.90;;;;;;5017585;28;21040;-72
2022/07/09 09:27:57;;;;;;;0.00;0.00;;;21.30;99.90;;;;;;5017566;28;20845;-70
2022/07/09 09:30:31;;;;;;;0.00;0.00;;;21.50;99.90;;;;;;5017350;28;20575;-70
2022/07/09 09:33:00;;;;;;;0.00;0.00;;;21.70;99.90;;;;;;5018088;28;20477;-72
2022/07/09 09:35:30;;;;;;;0.00;0.00;;;21.80;99.90;;;;;;5017960;28;20509;-72
2022/07/09 09:37:58;;;;;;;0.00;0.00;;;21.70;99.90;;;;;;5018244;28;20448;-72
2022/07/09 09:40:27;;;;;;;0.00;0.00;;;21.70;99.90;;;;;;5017813;28;20746;-69
2022/07/09 09:42:58;;;;;;;0.00;0.00;;;21.70;99.90;;;;;;5017761;28;21066;-72
2022/07/09 09:45:28;;;;;;;0.00;0.00;;;21.90;99.90;;;;;;5018046;28;20450;-72
2022/07/09 09:47:59;;;;;;;0.00;0.00;;;22.00;99.90;;;;;;5017930;28;20629;-71
2022/07/09 09:50:27;;;;;;;0.00;0.00;;;22.10;99.90;;;;;;5007974;28;20466;-71
2022/07/09 09:52:55;;;;;;;0.00;0.00;;;22.10;99.90;;;;;;5008679;28;21071;-71
2022/07/09 09:55:24;;;;;;;0.00;0.00;;;22.10;99.90;;;;;;5011260;28;20455;-70
2022/07/09 09:57:57;;;;;;;0.00;0.00;;;22.10;99.90;;;;;;5008564;28;20487;-70
2022/07/09 10:00:25;;;;;;;0.00;0.00;;;22.10;99.90;;;;;;5005546;28;20470;-70
2022/07/09 10:02:53;;;;;;;0.00;0.00;;;22.00;99.90;;;;;;5004061;28;20625;-70
2022/07/09 10:05:21;;;;;;;0.00;0.00;;;22.10;99.90;;;;;;4999371;28;20509;-70
2022/07/09 10:07:49;;;;;;;0.00;0.00;;;22.30;99.90;;;;;;4998812;28;21162;-71
2022/07/09 10:10:19;;;;;;;0.00;0.00;;;22.40;99.90;;;;;;5001604;28;20463;-70
2022/07/09 10:12:47;;;;;;;0.00;0.00;;;22.50;99.90;;;;;;5007156;28;20549;-70
2022/07/09 10:15:26;;;;;;;0.00;0.00;;;22.50;99.90;;;;;;4998433;28;20550;-69
2022/07/09 10:17:55;;;;;;;0.00;0.00;;;22.30;99.90;;;;;;4998550;28;20469;-70
2022/07/09 10:20:34;;;;;;;0.00;0.00;;;22.20;99.90;;;;;;4998352;28;20444;-70
2022/07/09 10:23:03;;;;;;;0.00;0.00;;;22.10;99.90;;;;;;4998591;28;20576;-69
2022/07/09 10:25:42;;;;;;;0.00;0.00;;;22.10;99.90;;;;;;5012838;28;20476;-67
2022/07/09 10:28:15;;;;;;;0.00;0.00;;;22.00;99.90;;;;;;5004844;28;21004;-68
2022/07/09 10:30:44;;;;;;;0.00;0.00;;;21.70;99.90;;;;;;5017771;28;20444;-68
2022/07/09 10:33:14;;;;;;;0.00;0.00;;;21.40;99.90;;;;;;5018361;28;20525;-68
2022/07/09 10:35:43;;;;;;;0.00;0.00;;;21.20;99.90;;;;;;5014320;28;20560;-68
2022/07/09 10:38:12;;;;;;;0.00;0.00;;;21.10;99.90;;;;;;5016927;28;20446;-68
2022/07/09 10:40:41;;;;;;;0.00;0.00;;;21.10;99.90;;;;;;5013395;28;20527;-69
2022/07/09 10:43:10;;;;;;;0.00;0.00;;;21.20;99.90;;;;;;5017157;28;20995;-67
2022/07/09 10:45:39;;;;;;;0.00;0.00;;;21.40;99.90;;;;;;5017091;28;20975;-70
2022/07/09 10:48:10;;;;;;;0.00;0.00;;;21.60;99.90;;;;;;5015886;28;20476;-67
2022/07/09 10:50:39;;;;;;;0.00;0.00;;;21.80;99.90;;;;;;5013753;28;20516;-68
2022/07/09 10:53:07;;;;;;;0.00;0.00;;;21.90;99.90;;;;;;5018914;28;20977;-68
2022/07/09 10:55:35;;;;;;;0.00;0.00;;;21.90;99.90;;;;;;5017278;28;20453;-68
2022/07/09 10:58:07;;;;;;;0.00;0.00;;;21.90;99.90;;;;;;5016719;28;20468;-68
2022/07/09 11:00:37;;;;;;;0.00;0.00;;;21.80;99.90;;;;;;5015257;28;20874;-68
2022/07/09 11:03:06;;;;;;;0.00;0.00;;;21.70;99.90;;;;;;5005359;28;20486;-68
2022/07/09 11:05:45;;;;;;;0.00;0.00;;;21.70;99.90;;;;;;5008568;28;21407;-74
2022/07/09 11:08:13;;;;;;;0.00;0.00;;;21.70;99.90;;;;;;5001301;28;20774;-74
2022/07/09 11:10:41;;;;;;;0.00;0.00;;;21.80;99.90;;;;;;5010020;28;20449;-74
2022/07/09 11:13:17;;;;;;;0.00;0.00;;;21.90;99.90;;;;;;5020451;28;20435;-74
2022/07/09 11:15:45;;;;;;;0.00;0.00;;;22.00;99.90;;;;;;5017579;28;20454;-74
2022/07/09 11:18:14;;;;;;;0.00;0.00;;;22.20;99.90;;;;;;5016404;28;20672;-74
2022/07/09 11:20:45;;;;;;;0.00;0.00;;;22.50;99.90;;;;;;5014069;28;20446;-74
2022/07/09 11:23:14;;;;;;;0.00;0.00;;;22.70;99.90;;;;;;5001039;28;20480;-74
2022/07/09 11:25:42;;;;;;;0.00;0.00;;;22.90;99.90;;;;;;5000571;28;20448;-74
2022/07/09 11:28:19;;;;;;;0.00;0.00;;;23.00;99.90;;;;;;5001011;28;20465;-74
2022/07/09 11:30:58;;;;;;;0.00;0.00;;;23.20;99.90;;;;;;5011519;28;21094;-73
2022/07/09 11:33:27;;;;;;;0.00;0.00;;;23.40;99.90;;;;;;5018901;28;20431;-73
2022/07/09 11:35:56;;;;;;;0.00;0.00;;;23.40;99.90;;;;;;5020416;28;20506;-73
2022/07/09 11:38:24;;;;;;;0.00;0.00;;;23.20;99.90;;;;;;5019673;28;20477;-75
2022/07/09 11:41:00;;;;;;;0.00;0.00;;;22.70;99.90;;;;;;5015583;28;20840;-74
2022/07/09 11:43:28;;;;;;;0.00;0.00;;;21.80;99.90;;;;;;5017742;28;20879;-76
2022/07/09 11:45:56;;;;;;;0.00;0.00;;;21.00;99.90;;;;;;5019449;28;20433;-75
2022/07/09 11:48:26;;;;;;;0.00;0.00;;;20.40;99.90;;;;;;5019177;28;20879;-74
2022/07/09 11:50:53;;;;;;;0.00;0.00;;;20.00;99.90;;;;;;5019178;28;20960;-75
2022/07/09 11:53:23;;;;;;;0.00;0.00;;;19.80;99.90;;;;;;5017301;28;20445;-75
2022/07/09 11:56:01;;;;;;;0.00;0.00;;;19.60;99.90;;;;;;5017367;28;20550;-75
2022/07/09 11:58:29;;;;;;;0.00;0.00;;;19.50;99.90;;;;;;5017911;28;20453;-75
2022/07/09 12:00:59;;;;;;;0.00;0.00;;;19.50;99.90;;;;;;5019428;28;20533;-75
2022/07/09 12:03:29;;;;;;;0.00;0.00;;;19.60;99.90;;;;;;5018617;28;20575;-74
2022/07/09 12:05:58;;;;;;;0.00;0.00;;;20.00;99.90;;;;;;5019304;28;20460;-74
2022/07/09 12:08:31;;;;;;;0.00;0.00;;;20.40;99.90;;;;;;5016508;28;20489;-74
2022/07/09 12:11:00;;;;;;;0.00;0.00;;;20.70;99.90;;;;;;5016934;28;20438;-74
2022/07/09 12:13:29;;;;;;;0.00;0.00;;;20.90;99.90;;;;;;5018993;28;20960;-74
2022/07/09 12:15:57;;;;;;;0.00;0.00;;;21.20;99.90;;;;;;5020238;28;20966;-73
2022/07/09 12:18:25;;;;;;;0.00;0.00;;;21.50;99.90;;;;;;5018876;28;20484;-74
2022/07/09 12:20:53;;;;;;;0.00;0.00;;;21.80;99.90;;;;;;5019489;28;20444;-73
2022/07/09 12:23:21;;;;;;;0.00;0.00;;;21.90;99.90;;;;;;5024378;28;20485;-73
2022/07/09 12:25:50;;;;;;;0.00;0.00;;;21.70;99.90;;;;;;5020103;28;20455;-73
2022/07/09 12:28:18;;;;;;;0.00;0.00;;;21.70;99.90;;;;;;5017786;28;20535;-74
2022/07/09 12:30:46;;;;;;;0.00;0.00;;;21.60;99.90;;;;;;4999794;28;21200;-73
2022/07/09 12:33:14;;;;;;;0.00;0.00;;;21.40;99.90;;;;;;5000837;28;20434;-73
2022/07/09 12:35:42;;;;;;;0.00;0.00;;;21.30;99.90;;;;;;5000094;28;20447;-73
2022/07/09 12:38:10;;;;;;;0.00;0.00;;;21.30;99.90;;;;;;5000295;28;21108;-75
2022/07/09 12:40:38;;;;;;;0.00;0.00;;;21.50;99.90;;;;;;4999943;28;20453;-73
2022/07/09 12:43:07;;;;;;;0.00;0.00;;;21.60;99.90;;;;;;5003264;28;20536;-73
2022/07/09 12:45:35;;;;;;;0.00;0.00;;;21.70;99.90;;;;;;5019053;28;20468;-73
2022/07/09 12:48:03;;;;;;;0.00;0.00;;;21.70;99.90;;;;;;5015476;28;20462;-74
2022/07/09 12:50:30;;;;;;;0.00;0.00;;;21.80;99.90;;;;;;5005818;28;20470;-72
2022/07/09 12:52:58;;;;;;;0.00;0.00;;;21.90;99.90;;;;;;4999163;28;20533;-73
2022/07/09 12:55:26;;;;;;;0.00;0.00;;;21.90;99.90;;;;;;5002636;28;20836;-73
2022/07/09 12:57:54;;;;;;;0.00;0.00;;;21.80;99.90;;;;;;5018716;28;20465;-73
2022/07/09 13:00:23;;;;;;;0.00;0.00;;;21.70;99.90;;;;;;5018605;28;20442;-73
2022/07/09 13:02:52;;;;;;;0.00;0.00;;;21.60;99.90;;;;;;5002223;28;20468;-73
2022/07/09 13:05:20;;;;;;;0.00;0.00;;;21.50;99.90;;;;;;5001791;28;21054;-74
2022/07/09 13:07:47;;;;;;;0.00;0.00;;;21.40;99.90;;;;;;5017662;28;20841;-73
2022/07/09 13:10:15;;;;;;;0.00;0.00;;;21.50;99.90;;;;;;5018614;28;20520;-73